sensor_id;sensor_type;location;lat;lon;timestamp;pressure;altitude;pressure_sealevel;temperature;humidity
37832;BME280;23671;38.090;-122.570;2022-10-23T00:01:32;100665.97;;;20.12;49.42
37832;BME280;23671;38.090;-122.570;2022-10-23T00:04:05;100670.28;;;20.13;49.13
37832;BME280;23671;38.090;-122.570;2022-10-23T00:06:33;100665.31;;;20.10;49.33
37832;BME280;23671;38.090;-122.570;2022-10-23T00:09:01;100665.69;;;20.07;49.18
37832;BME280;23671;38.090;-122.570;2022-10-23T00:11:30;100675.56;;;20.07;49.31
37832;BME280;23671;38.090;-122.570;2022-10-23T00:14:01;100671.41;;;20.04;49.43
37832;BME280;23671;38.090;-122.570;2022-10-23T00:16:29;100666.88;;;20.05;49.11
37832;BME280;23671;38.090;-122.570;2022-10-23T00:18:56;100672.59;;;20.02;49.10
37832;BME280;23671;38.090;-122.570;2022-10-23T00:21:23;100663.44;;;19.96;49.28
37832;BME280;23671;38.090;-122.570;2022-10-23T00:23:51;100680.19;;;19.98;49.22
37832;BME280;23671;38.090;-122.570;2022-10-23T00:26:18;100666.78;;;19.98;49.23
37832;BME280;23671;38.090;-122.570;2022-10-23T00:28:48;100669.38;;;19.91;49.42
37832;BME280;23671;38.090;-122.570;2022-10-23T00:31:16;100668.81;;;19.96;49.24
37832;BME280;23671;38.090;-122.570;2022-10-23T00:33:44;100666.69;;;19.91;49.45
37832;BME280;23671;38.090;-122.570;2022-10-23T00:36:13;100677.56;;;19.90;49.35
37832;BME280;23671;38.090;-122.570;2022-10-23T00:38:40;100664.81;;;19.92;49.55
37832;BME280;23671;38.090;-122.570;2022-10-23T00:41:10;100671.94;;;19.85;49.41
37832;BME280;23671;38.090;-122.570;2022-10-23T00:46:31;100668.97;;;19.80;49.45
37832;BME280;23671;38.090;-122.570;2022-10-23T00:48:59;100670.53;;;19.74;49.67
37832;BME280;23671;38.090;-122.570;2022-10-23T00:51:30;100682.44;;;19.72;49.93
37832;BME280;23671;38.090;-122.570;2022-10-23T00:54:00;100672.72;;;19.71;49.13
37832;BME280;23671;38.090;-122.570;2022-10-23T00:56:27;100684.47;;;19.70;49.21
37832;BME280;23671;38.090;-122.570;2022-10-23T00:58:56;100674.09;;;19.67;49.37
37832;BME280;23671;38.090;-122.570;2022-10-23T01:01:23;100686.88;;;19.65;48.91
37832;BME280;23671;38.090;-122.570;2022-10-23T01:03:51;100680.47;;;19.66;49.04
37832;BME280;23671;38.090;-122.570;2022-10-23T01:09:30;100690.06;;;19.60;48.13
37832;BME280;23671;38.090;-122.570;2022-10-23T01:18:11;100702.16;;;19.56;47.56
37832;BME280;23671;38.090;-122.570;2022-10-23T01:21:06;100710.06;;;19.50;47.87
37832;BME280;23671;38.090;-122.570;2022-10-23T01:23:56;100699.72;;;19.47;48.28
37832;BME280;23671;38.090;-122.570;2022-10-23T01:35:11;100700.84;;;19.30;47.60
37832;BME280;23671;38.090;-122.570;2022-10-23T01:37:46;100714.91;;;19.24;47.48
37832;BME280;23671;38.090;-122.570;2022-10-23T01:40:33;100709.44;;;19.17;47.53
37832;BME280;23671;38.090;-122.570;2022-10-23T01:43:11;100723.00;;;19.16;47.13
37832;BME280;23671;38.090;-122.570;2022-10-23T01:45:47;100712.66;;;19.13;47.50
37832;BME280;23671;38.090;-122.570;2022-10-23T01:48:21;100701.28;;;19.11;47.51
37832;BME280;23671;38.090;-122.570;2022-10-23T01:50:51;100715.56;;;19.03;47.44
37832;BME280;23671;38.090;-122.570;2022-10-23T01:53:20;100714.72;;;19.02;47.43
37832;BME280;23671;38.090;-122.570;2022-10-23T01:55:48;100713.22;;;19.00;47.11
37832;BME280;23671;38.090;-122.570;2022-10-23T01:58:17;100717.06;;;18.97;47.13
37832;BME280;23671;38.090;-122.570;2022-10-23T02:00:47;100719.63;;;18.91;46.85
37832;BME280;23671;38.090;-122.570;2022-10-23T02:03:17;100728.16;;;18.86;47.08
37832;BME280;23671;38.090;-122.570;2022-10-23T02:05:44;100729.19;;;18.85;47.05
37832;BME280;23671;38.090;-122.570;2022-10-23T02:08:11;100743.91;;;18.81;47.06
37832;BME280;23671;38.090;-122.570;2022-10-23T02:10:47;100740.25;;;18.74;47.15
37832;BME280;23671;38.090;-122.570;2022-10-23T02:13:25;100728.25;;;18.70;46.94
37832;BME280;23671;38.090;-122.570;2022-10-23T02:18:49;100734.44;;;18.63;46.95
37832;BME280;23671;38.090;-122.570;2022-10-23T02:21:53;100738.63;;;18.57;47.15
37832;BME280;23671;38.090;-122.570;2022-10-23T02:24:50;100748.84;;;18.54;46.93
37832;BME280;23671;38.090;-122.570;2022-10-23T02:27:36;100745.22;;;18.47;46.89
37832;BME280;23671;38.090;-122.570;2022-10-23T02:30:08;100751.53;;;18.46;46.81
37832;BME280;23671;38.090;-122.570;2022-10-23T02:32:39;100744.84;;;18.42;47.03
37832;BME280;23671;38.090;-122.570;2022-10-23T02:35:08;100749.03;;;18.36;46.81
37832;BME280;23671;38.090;-122.570;2022-10-23T02:37:35;100739.53;;;18.34;47.01
37832;BME280;23671;38.090;-122.570;2022-10-23T02:40:02;100754.06;;;18.31;47.03
37832;BME280;23671;38.090;-122.570;2022-10-23T02:42:41;100748.22;;;18.28;46.81
37832;BME280;23671;38.090;-122.570;2022-10-23T02:45:42;100756.75;;;18.23;47.07
37832;BME280;23671;38.090;-122.570;2022-10-23T02:48:22;100761.59;;;18.20;46.98
37832;BME280;23671;38.090;-122.570;2022-10-23T02:51:05;100771.94;;;18.14;46.89
37832;BME280;23671;38.090;-122.570;2022-10-23T02:56:43;100763.13;;;17.98;46.86
37832;BME280;23671;38.090;-122.570;2022-10-23T03:05:00;100757.09;;;17.80;47.27
37832;BME280;23671;38.090;-122.570;2022-10-23T03:07:28;100758.28;;;17.77;47.40
37832;BME280;23671;38.090;-122.570;2022-10-23T03:09:55;100763.13;;;17.74;47.30
37832;BME280;23671;38.090;-122.570;2022-10-23T03:12:22;100762.47;;;17.72;47.44
37832;BME280;23671;38.090;-122.570;2022-10-23T03:14:49;100757.13;;;17.72;47.03
37832;BME280;23671;38.090;-122.570;2022-10-23T03:17:16;100766.47;;;17.68;47.01
37832;BME280;23671;38.090;-122.570;2022-10-23T03:19:43;100767.28;;;17.60;47.27
37832;BME280;23671;38.090;-122.570;2022-10-23T03:22:10;100772.44;;;17.54;47.26
37832;BME280;23671;38.090;-122.570;2022-10-23T03:24:37;100774.59;;;17.50;47.33
37832;BME280;23671;38.090;-122.570;2022-10-23T03:27:04;100793.56;;;17.47;47.30
37832;BME280;23671;38.090;-122.570;2022-10-23T03:29:31;100792.25;;;17.43;47.58
37832;BME280;23671;38.090;-122.570;2022-10-23T03:31:58;100803.06;;;17.42;47.49
37832;BME280;23671;38.090;-122.570;2022-10-23T03:34:25;100812.41;;;17.38;47.57
37832;BME280;23671;38.090;-122.570;2022-10-23T03:36:52;100827.06;;;17.34;47.41
37832;BME280;23671;38.090;-122.570;2022-10-23T03:39:19;100828.25;;;17.31;47.58
37832;BME280;23671;38.090;-122.570;2022-10-23T03:41:46;100822.41;;;17.27;47.53
37832;BME280;23671;38.090;-122.570;2022-10-23T03:44:13;100829.75;;;17.25;47.75
37832;BME280;23671;38.090;-122.570;2022-10-23T03:46:40;100839.56;;;17.25;47.81
37832;BME280;23671;38.090;-122.570;2022-10-23T03:49:07;100832.19;;;17.19;47.62
37832;BME280;23671;38.090;-122.570;2022-10-23T03:51:34;100830.00;;;17.14;47.69
37832;BME280;23671;38.090;-122.570;2022-10-23T03:54:01;100844.53;;;17.12;47.55
37832;BME280;23671;38.090;-122.570;2022-10-23T03:56:28;100842.16;;;17.09;47.83
37832;BME280;23671;38.090;-122.570;2022-10-23T03:58:55;100850.50;;;17.06;48.01
37832;BME280;23671;38.090;-122.570;2022-10-23T04:01:22;100861.16;;;17.06;47.69
37832;BME280;23671;38.090;-122.570;2022-10-23T04:03:49;100855.47;;;17.01;48.02
37832;BME280;23671;38.090;-122.570;2022-10-23T04:06:16;100856.47;;;17.00;47.88
37832;BME280;23671;38.090;-122.570;2022-10-23T04:08:44;100849.59;;;16.97;47.81
37832;BME280;23671;38.090;-122.570;2022-10-23T04:11:11;100851.59;;;16.95;47.87
37832;BME280;23671;38.090;-122.570;2022-10-23T04:13:38;100852.91;;;16.91;47.62
37832;BME280;23671;38.090;-122.570;2022-10-23T04:16:05;100855.28;;;16.94;47.85
37832;BME280;23671;38.090;-122.570;2022-10-23T04:18:32;100863.56;;;16.91;48.03
37832;BME280;23671;38.090;-122.570;2022-10-23T04:20:59;100868.72;;;16.85;47.62
37832;BME280;23671;38.090;-122.570;2022-10-23T04:23:25;100874.34;;;16.82;47.61
37832;BME280;23671;38.090;-122.570;2022-10-23T04:25:55;100869.19;;;16.80;47.77
37832;BME280;23671;38.090;-122.570;2022-10-23T04:28:23;100886.50;;;16.76;47.57
37832;BME280;23671;38.090;-122.570;2022-10-23T04:30:51;100885.66;;;16.76;47.66
37832;BME280;23671;38.090;-122.570;2022-10-23T04:33:18;100889.78;;;16.70;48.22
37832;BME280;23671;38.090;-122.570;2022-10-23T04:35:45;100897.25;;;16.67;47.67
37832;BME280;23671;38.090;-122.570;2022-10-23T04:38:12;100890.72;;;16.61;48.08
37832;BME280;23671;38.090;-122.570;2022-10-23T04:40:39;100902.41;;;16.60;48.10
37832;BME280;23671;38.090;-122.570;2022-10-23T04:43:06;100913.88;;;16.61;47.76
37832;BME280;23671;38.090;-122.570;2022-10-23T04:45:33;100908.03;;;16.57;48.10
37832;BME280;23671;38.090;-122.570;2022-10-23T04:48:00;100922.66;;;16.53;47.75
37832;BME280;23671;38.090;-122.570;2022-10-23T04:50:27;100920.16;;;16.52;47.71
37832;BME280;23671;38.090;-122.570;2022-10-23T04:52:55;100908.47;;;16.53;47.99
37832;BME280;23671;38.090;-122.570;2022-10-23T04:55:23;100910.63;;;16.49;47.99
37832;BME280;23671;38.090;-122.570;2022-10-23T04:57:52;100906.66;;;16.53;47.73
37832;BME280;23671;38.090;-122.570;2022-10-23T05:00:19;100907.22;;;16.47;47.55
37832;BME280;23671;38.090;-122.570;2022-10-23T05:02:46;100905.88;;;16.43;47.79
37832;BME280;23671;38.090;-122.570;2022-10-23T05:05:13;100911.69;;;16.38;47.65
37832;BME280;23671;38.090;-122.570;2022-10-23T05:07:40;100908.16;;;16.38;47.86
37832;BME280;23671;38.090;-122.570;2022-10-23T05:10:07;100910.75;;;16.30;47.84
37832;BME280;23671;38.090;-122.570;2022-10-23T05:12:34;100912.44;;;16.31;47.28
37832;BME280;23671;38.090;-122.570;2022-10-23T05:15:01;100910.56;;;16.23;47.60
37832;BME280;23671;38.090;-122.570;2022-10-23T05:17:33;100927.34;;;16.24;47.72
37832;BME280;23671;38.090;-122.570;2022-10-23T05:20:04;100927.34;;;16.24;47.53
37832;BME280;23671;38.090;-122.570;2022-10-23T05:22:35;100939.00;;;16.23;47.79
37832;BME280;23671;38.090;-122.570;2022-10-23T05:25:04;100934.97;;;16.19;47.80
37832;BME280;23671;38.090;-122.570;2022-10-23T05:27:31;100943.81;;;16.19;47.42
37832;BME280;23671;38.090;-122.570;2022-10-23T05:29:58;100944.94;;;16.17;47.50
37832;BME280;23671;38.090;-122.570;2022-10-23T05:32:27;100958.59;;;16.14;47.71
37832;BME280;23671;38.090;-122.570;2022-10-23T05:34:55;100965.03;;;16.11;47.71
37832;BME280;23671;38.090;-122.570;2022-10-23T05:37:22;100955.50;;;16.09;47.34
37832;BME280;23671;38.090;-122.570;2022-10-23T05:39:50;100965.03;;;16.11;47.35
37832;BME280;23671;38.090;-122.570;2022-10-23T05:42:17;100970.66;;;16.08;47.34
37832;BME280;23671;38.090;-122.570;2022-10-23T05:44:44;100978.13;;;16.05;47.42
37832;BME280;23671;38.090;-122.570;2022-10-23T05:47:11;100990.91;;;16.01;47.37
37832;BME280;23671;38.090;-122.570;2022-10-23T05:49:38;100995.38;;;16.01;47.69
37832;BME280;23671;38.090;-122.570;2022-10-23T05:52:05;100997.34;;;15.99;47.48
37832;BME280;23671;38.090;-122.570;2022-10-23T05:54:32;101003.00;;;15.96;47.64
37832;BME280;23671;38.090;-122.570;2022-10-23T05:56:59;101000.16;;;15.97;47.53
37832;BME280;23671;38.090;-122.570;2022-10-23T05:59:26;101010.44;;;15.92;47.54
37832;BME280;23671;38.090;-122.570;2022-10-23T06:01:53;101005.28;;;15.91;47.84
37832;BME280;23671;38.090;-122.570;2022-10-23T06:04:21;101004.59;;;15.89;47.61
37832;BME280;23671;38.090;-122.570;2022-10-23T06:06:48;101021.00;;;15.84;47.82
37832;BME280;23671;38.090;-122.570;2022-10-23T06:09:15;101026.31;;;15.84;47.55
37832;BME280;23671;38.090;-122.570;2022-10-23T06:11:43;101024.94;;;15.80;47.90
37832;BME280;23671;38.090;-122.570;2022-10-23T06:14:10;101031.25;;;15.79;47.92
37832;BME280;23671;38.090;-122.570;2022-10-23T06:16:37;101028.88;;;15.76;47.83
37832;BME280;23671;38.090;-122.570;2022-10-23T06:19:04;101030.84;;;15.74;47.81
37832;BME280;23671;38.090;-122.570;2022-10-23T06:21:31;101041.66;;;15.73;47.99
37832;BME280;23671;38.090;-122.570;2022-10-23T06:24:02;101042.59;;;15.72;47.77
37832;BME280;23671;38.090;-122.570;2022-10-23T06:26:29;101048.56;;;15.66;47.91
37832;BME280;23671;38.090;-122.570;2022-10-23T06:28:56;101045.03;;;15.65;47.99
37832;BME280;23671;38.090;-122.570;2022-10-23T06:31:23;101045.19;;;15.64;48.11
37832;BME280;23671;38.090;-122.570;2022-10-23T06:33:54;101039.28;;;15.60;47.90
37832;BME280;23671;38.090;-122.570;2022-10-23T06:36:21;101042.94;;;15.59;47.97
37832;BME280;23671;38.090;-122.570;2022-10-23T06:38:48;101042.25;;;15.57;47.79
37832;BME280;23671;38.090;-122.570;2022-10-23T06:41:18;101032.72;;;15.55;47.73
37832;BME280;23671;38.090;-122.570;2022-10-23T06:43:48;101031.22;;;15.52;48.11
37832;BME280;23671;38.090;-122.570;2022-10-23T06:46:15;101029.69;;;15.50;47.92
37832;BME280;23671;38.090;-122.570;2022-10-23T06:48:43;101019.72;;;15.52;47.81
37832;BME280;23671;38.090;-122.570;2022-10-23T06:51:12;101021.00;;;15.48;47.81
37832;BME280;23671;38.090;-122.570;2022-10-23T06:53:39;101021.97;;;15.46;47.75
37832;BME280;23671;38.090;-122.570;2022-10-23T06:56:08;101033.47;;;15.47;47.84
37832;BME280;23671;38.090;-122.570;2022-10-23T06:58:37;101034.88;;;15.41;47.97
37832;BME280;23671;38.090;-122.570;2022-10-23T07:01:07;101042.97;;;15.40;48.01
37832;BME280;23671;38.090;-122.570;2022-10-23T07:03:34;101037.53;;;15.41;48.04
37832;BME280;23671;38.090;-122.570;2022-10-23T07:06:04;101043.41;;;15.35;48.06
37832;BME280;23671;38.090;-122.570;2022-10-23T07:08:31;101051.25;;;15.37;47.93
37832;BME280;23671;38.090;-122.570;2022-10-23T07:11:06;101053.34;;;15.33;48.27
37832;BME280;23671;38.090;-122.570;2022-10-23T07:13:34;101053.50;;;15.32;47.84
37832;BME280;23671;38.090;-122.570;2022-10-23T07:16:17;101058.28;;;15.28;48.01
37832;BME280;23671;38.090;-122.570;2022-10-23T07:18:46;101069.75;;;15.29;48.03
37832;BME280;23671;38.090;-122.570;2022-10-23T07:21:13;101064.00;;;15.24;48.06
37832;BME280;23671;38.090;-122.570;2022-10-23T07:23:40;101055.19;;;15.23;48.05
37832;BME280;23671;38.090;-122.570;2022-10-23T07:26:13;101058.16;;;15.20;48.08
37832;BME280;23671;38.090;-122.570;2022-10-23T07:28:42;101056.47;;;15.19;47.91
37832;BME280;23671;38.090;-122.570;2022-10-23T07:31:10;101050.31;;;15.19;47.94
37832;BME280;23671;38.090;-122.570;2022-10-23T07:33:37;101047.09;;;15.15;47.82
37832;BME280;23671;38.090;-122.570;2022-10-23T07:36:06;101052.84;;;15.11;47.81
37832;BME280;23671;38.090;-122.570;2022-10-23T07:38:33;101064.03;;;15.14;47.87
37832;BME280;23671;38.090;-122.570;2022-10-23T07:41:01;101076.63;;;15.12;47.87
37832;BME280;23671;38.090;-122.570;2022-10-23T07:43:28;101071.31;;;15.12;47.82
37832;BME280;23671;38.090;-122.570;2022-10-23T07:45:55;101073.28;;;15.10;47.83
37832;BME280;23671;38.090;-122.570;2022-10-23T07:48:22;101077.88;;;15.08;47.96
37832;BME280;23671;38.090;-122.570;2022-10-23T07:50:50;101072.41;;;15.10;47.70
37832;BME280;23671;38.090;-122.570;2022-10-23T07:53:19;101074.41;;;15.08;47.78
37832;BME280;23671;38.090;-122.570;2022-10-23T07:56:01;101084.47;;;15.04;48.00
37832;BME280;23671;38.090;-122.570;2022-10-23T07:58:28;101095.41;;;15.01;47.78
37832;BME280;23671;38.090;-122.570;2022-10-23T08:01:00;101084.06;;;14.99;47.98
37832;BME280;23671;38.090;-122.570;2022-10-23T08:03:32;101082.50;;;14.97;47.76
37832;BME280;23671;38.090;-122.570;2022-10-23T08:05:59;101085.31;;;14.95;47.88
37832;BME280;23671;38.090;-122.570;2022-10-23T08:08:27;101094.28;;;14.94;47.69
37832;BME280;23671;38.090;-122.570;2022-10-23T08:10:55;101089.25;;;14.91;47.91
37832;BME280;23671;38.090;-122.570;2022-10-23T08:13:22;101087.69;;;14.89;47.68
37832;BME280;23671;38.090;-122.570;2022-10-23T08:15:50;101099.31;;;14.88;47.88
37832;BME280;23671;38.090;-122.570;2022-10-23T08:18:18;101101.13;;;14.87;47.79
37832;BME280;23671;38.090;-122.570;2022-10-23T08:20:46;101097.63;;;14.87;47.60
37832;BME280;23671;38.090;-122.570;2022-10-23T08:23:16;101093.44;;;14.84;47.70
37832;BME280;23671;38.090;-122.570;2022-10-23T08:25:44;101099.03;;;14.81;47.87
37832;BME280;23671;38.090;-122.570;2022-10-23T08:28:12;101099.88;;;14.82;47.57
37832;BME280;23671;38.090;-122.570;2022-10-23T08:30:39;101105.19;;;14.82;47.63
37832;BME280;23671;38.090;-122.570;2022-10-23T08:33:06;101108.69;;;14.82;47.52
37832;BME280;23671;38.090;-122.570;2022-10-23T08:35:39;101110.66;;;14.80;47.80
37832;BME280;23671;38.090;-122.570;2022-10-23T08:38:06;101109.09;;;14.78;47.61
37832;BME280;23671;38.090;-122.570;2022-10-23T08:40:34;101115.25;;;14.78;47.64
37832;BME280;23671;38.090;-122.570;2022-10-23T08:43:05;101112.59;;;14.78;47.73
37832;BME280;23671;38.090;-122.570;2022-10-23T08:53:54;101109.09;;;14.68;47.51
37832;BME280;23671;38.090;-122.570;2022-10-23T08:56:33;101112.75;;;14.67;47.44
37832;BME280;23671;38.090;-122.570;2022-10-23T09:02:26;101113.00;;;14.64;47.50
37832;BME280;23671;38.090;-122.570;2022-10-23T09:04:56;101119.44;;;14.62;47.62
37832;BME280;23671;38.090;-122.570;2022-10-23T09:15:48;101117.06;;;14.58;47.40
37832;BME280;23671;38.090;-122.570;2022-10-23T09:18:23;101113.13;;;14.53;47.40
37832;BME280;23671;38.090;-122.570;2022-10-23T09:20:50;101117.72;;;14.51;47.66
37832;BME280;23671;38.090;-122.570;2022-10-23T09:23:21;101122.19;;;14.50;47.51
37832;BME280;23671;38.090;-122.570;2022-10-23T09:25:51;101118.72;;;14.50;47.71
37832;BME280;23671;38.090;-122.570;2022-10-23T09:28:24;101119.69;;;14.49;47.67
37832;BME280;23671;38.090;-122.570;2022-10-23T09:30:52;101117.31;;;14.46;47.31
37832;BME280;23671;38.090;-122.570;2022-10-23T09:33:25;101135.06;;;14.45;47.69
37832;BME280;23671;38.090;-122.570;2022-10-23T09:35:59;101139.69;;;14.43;47.63
37832;BME280;23671;38.090;-122.570;2022-10-23T09:38:38;101141.63;;;14.41;47.60
37832;BME280;23671;38.090;-122.570;2022-10-23T09:41:32;101137.28;;;14.40;47.47
37832;BME280;23671;38.090;-122.570;2022-10-23T09:44:14;101153.34;;;14.39;47.50
37832;BME280;23671;38.090;-122.570;2022-10-23T09:46:48;101146.22;;;14.39;47.47
37832;BME280;23671;38.090;-122.570;2022-10-23T09:49:30;101148.19;;;14.37;47.72
37832;BME280;23671;38.090;-122.570;2022-10-23T09:52:19;101143.84;;;14.36;47.26
37832;BME280;23671;38.090;-122.570;2022-10-23T09:54:52;101148.56;;;14.33;47.85
37832;BME280;23671;38.090;-122.570;2022-10-23T09:57:39;101154.88;;;14.32;47.71
37832;BME280;23671;38.090;-122.570;2022-10-23T10:00:15;101142.56;;;14.31;47.77
37832;BME280;23671;38.090;-122.570;2022-10-23T10:10:53;101136.06;;;14.24;47.67
37832;BME280;23671;38.090;-122.570;2022-10-23T10:16:39;101149.63;;;14.21;47.85
37832;BME280;23671;38.090;-122.570;2022-10-23T10:22:47;101147.22;;;14.18;47.86
37832;BME280;23671;38.090;-122.570;2022-10-23T10:38:50;101161.31;;;14.09;48.15
37832;BME280;23671;38.090;-122.570;2022-10-23T10:44:56;101175.69;;;14.06;47.56
37832;BME280;23671;38.090;-122.570;2022-10-23T10:47:21;101172.59;;;14.01;48.30
37832;BME280;23671;38.090;-122.570;2022-10-23T10:50:06;101185.75;;;14.03;47.70
37832;BME280;23671;38.090;-122.570;2022-10-23T10:58:00;101179.72;;;14.01;48.15
37832;BME280;23671;38.090;-122.570;2022-10-23T11:00:32;101186.03;;;14.00;47.57
37832;BME280;23671;38.090;-122.570;2022-10-23T11:03:23;101192.56;;;13.96;47.71
37832;BME280;23671;38.090;-122.570;2022-10-23T11:05:55;101194.38;;;13.95;47.97
37832;BME280;23671;38.090;-122.570;2022-10-23T11:08:36;101193.66;;;13.93;48.19
37832;BME280;23671;38.090;-122.570;2022-10-23T11:13:52;101199.34;;;13.89;48.00
37832;BME280;23671;38.090;-122.570;2022-10-23T11:16:35;101199.50;;;13.87;47.89
37832;BME280;23671;38.090;-122.570;2022-10-23T11:19:17;101200.47;;;13.86;47.82
37832;BME280;23671;38.090;-122.570;2022-10-23T11:21:49;101194.44;;;13.84;48.41
37832;BME280;23671;38.090;-122.570;2022-10-23T11:24:49;101199.06;;;13.82;48.44
37832;BME280;23671;38.090;-122.570;2022-10-23T11:27:42;101204.50;;;13.81;48.21
37832;BME280;23671;38.090;-122.570;2022-10-23T11:30:34;101207.25;;;13.79;48.18
37832;BME280;23671;38.090;-122.570;2022-10-23T11:38:42;101219.94;;;13.76;48.03
37832;BME280;23671;38.090;-122.570;2022-10-23T11:41:36;101217.28;;;13.76;47.68
37832;BME280;23671;38.090;-122.570;2022-10-23T11:44:21;101225.25;;;13.76;48.14
37832;BME280;23671;38.090;-122.570;2022-10-23T11:47:00;101216.56;;;13.74;48.43
37832;BME280;23671;38.090;-122.570;2022-10-23T11:49:27;101222.25;;;13.69;48.38
37832;BME280;23671;38.090;-122.570;2022-10-23T11:52:04;101221.44;;;13.68;48.13
37832;BME280;23671;38.090;-122.570;2022-10-23T11:54:31;101227.72;;;13.67;48.19
37832;BME280;23671;38.090;-122.570;2022-10-23T11:57:11;101227.97;;;13.64;48.44
37832;BME280;23671;38.090;-122.570;2022-10-23T12:02:31;101227.41;;;13.61;48.39
37832;BME280;23671;38.090;-122.570;2022-10-23T12:05:08;101238.25;;;13.58;48.39
37832;BME280;23671;38.090;-122.570;2022-10-23T12:07:57;101242.47;;;13.60;48.16
37832;BME280;23671;38.090;-122.570;2022-10-23T12:10:42;101244.28;;;13.60;48.03
37832;BME280;23671;38.090;-122.570;2022-10-23T12:16:00;101251.66;;;13.56;48.24
37832;BME280;23671;38.090;-122.570;2022-10-23T12:18:27;101256.97;;;13.56;48.55
37832;BME280;23671;38.090;-122.570;2022-10-23T12:20:59;101259.59;;;13.56;47.99
37832;BME280;23671;38.090;-122.570;2022-10-23T12:26:46;101260.97;;;13.51;48.61
37832;BME280;23671;38.090;-122.570;2022-10-23T12:34:53;101276.28;;;13.47;48.05
37832;BME280;23671;38.090;-122.570;2022-10-23T12:39:58;101277.50;;;13.43;48.63
37832;BME280;23671;38.090;-122.570;2022-10-23T12:42:29;101282.94;;;13.42;48.24
37832;BME280;23671;38.090;-122.570;2022-10-23T12:47:30;101291.84;;;13.41;48.41
37832;BME280;23671;38.090;-122.570;2022-10-23T12:49:57;101298.97;;;13.40;48.48
37832;BME280;23671;38.090;-122.570;2022-10-23T12:52:24;101293.66;;;13.40;48.03
37832;BME280;23671;38.090;-122.570;2022-10-23T12:54:51;101293.66;;;13.40;48.42
37832;BME280;23671;38.090;-122.570;2022-10-23T12:57:26;101293.94;;;13.37;48.57
37832;BME280;23671;38.090;-122.570;2022-10-23T13:00:06;101295.00;;;13.35;48.32
37832;BME280;23671;38.090;-122.570;2022-10-23T13:02:35;101295.72;;;13.37;48.10
37832;BME280;23671;38.090;-122.570;2022-10-23T13:05:06;101311.78;;;13.35;48.25
37832;BME280;23671;38.090;-122.570;2022-10-23T13:07:44;101319.00;;;13.33;48.25
37832;BME280;23671;38.090;-122.570;2022-10-23T13:10:17;101324.44;;;13.32;48.40
37832;BME280;23671;38.090;-122.570;2022-10-23T13:12:52;101329.88;;;13.30;48.33
37832;BME280;23671;38.090;-122.570;2022-10-23T13:15:21;101327.59;;;13.26;48.00
37832;BME280;23671;38.090;-122.570;2022-10-23T13:17:59;101319.50;;;13.27;48.63
37832;BME280;23671;38.090;-122.570;2022-10-23T13:20:31;101330.84;;;13.29;48.22
37832;BME280;23671;38.090;-122.570;2022-10-23T13:26:03;101340.00;;;13.25;48.33
37832;BME280;23671;38.090;-122.570;2022-10-23T13:28:40;101345.69;;;13.21;49.00
37832;BME280;23671;38.090;-122.570;2022-10-23T13:33:45;101364.13;;;13.22;48.26
37832;BME280;23671;38.090;-122.570;2022-10-23T13:38:41;101366.91;;;13.21;48.39
37832;BME280;23671;38.090;-122.570;2022-10-23T13:41:15;101359.03;;;13.19;48.48
37832;BME280;23671;38.090;-122.570;2022-10-23T13:43:44;101366.06;;;13.20;47.93
37832;BME280;23671;38.090;-122.570;2022-10-23T13:46:15;101379.06;;;13.23;48.31
37832;BME280;23671;38.090;-122.570;2022-10-23T13:48:43;101388.00;;;13.22;48.14
37832;BME280;23671;38.090;-122.570;2022-10-23T13:51:33;101381.25;;;13.18;48.19
37832;BME280;23671;38.090;-122.570;2022-10-23T13:54:01;101380.53;;;13.16;48.29
37832;BME280;23671;38.090;-122.570;2022-10-23T13:56:28;101389.31;;;13.17;48.07
37832;BME280;23671;38.090;-122.570;2022-10-23T13:58:55;101392.06;;;13.15;48.66
37832;BME280;23671;38.090;-122.570;2022-10-23T14:01:33;101398.09;;;13.17;48.07
37832;BME280;23671;38.090;-122.570;2022-10-23T14:04:02;101400.03;;;13.15;48.39
37832;BME280;23671;38.090;-122.570;2022-10-23T14:06:31;101401.59;;;13.18;47.67
37832;BME280;23671;38.090;-122.570;2022-10-23T14:08:58;101401.00;;;13.14;47.80
37832;BME280;23671;38.090;-122.570;2022-10-23T14:11:25;101398.34;;;13.14;48.04
37832;BME280;23671;38.090;-122.570;2022-10-23T14:13:52;101408.97;;;13.14;48.00
37832;BME280;23671;38.090;-122.570;2022-10-23T14:16:20;101401.13;;;13.13;48.32
37832;BME280;23671;38.090;-122.570;2022-10-23T14:18:48;101393.41;;;13.10;48.04
37832;BME280;23671;38.090;-122.570;2022-10-23T14:21:17;101404.25;;;13.07;47.86
37832;BME280;23671;38.090;-122.570;2022-10-23T14:23:46;101411.38;;;13.06;48.14
37832;BME280;23671;38.090;-122.570;2022-10-23T14:26:16;101406.66;;;13.10;48.11
37832;BME280;23671;38.090;-122.570;2022-10-23T14:28:43;101407.78;;;13.07;48.08
37832;BME280;23671;38.090;-122.570;2022-10-23T14:31:13;101418.38;;;13.07;48.34
37832;BME280;23671;38.090;-122.570;2022-10-23T14:33:41;101413.88;;;13.08;48.50
37832;BME280;23671;38.090;-122.570;2022-10-23T14:36:08;101410.63;;;13.04;47.96
37832;BME280;23671;38.090;-122.570;2022-10-23T14:38:35;101420.03;;;13.08;47.57
37832;BME280;23671;38.090;-122.570;2022-10-23T14:41:12;101411.50;;;13.05;47.59
37832;BME280;23671;38.090;-122.570;2022-10-23T14:43:39;101415.00;;;13.05;47.72
37832;BME280;23671;38.090;-122.570;2022-10-23T14:46:13;101417.97;;;13.01;47.88